Camana, Peru
Current Conditions -  °F | °C
As of 4:00 PM on Wednesday 26 Nov 2014 (Local Time) from SPQU Reporting Station
Clear Clear  
Wind Chill: 68°   Ceiling: Unl
Heat Index: 68°   Visibility: 6mi
Dew Point: 23°   Wind: 14mph
Humidity: 18%   Direction: 250°WSW
Pressure: 30.27"   Gusts: 28mph
Location:  16.62°S, 72.72°W
Report Text: SPQU 262100Z 25012G24KT CAVOK 20/M05 Q1025 NOSIG RMK PP000
Loading
Personal Weather Stations






























Interactive Weather Map New forecast layout! Learn more

10-Day Weather Forecast

Advertisements
Track Severe Weather on mobile